Time;durP1;ratioP1;P1;durP2;ratioP2;P2;SDS_P1;SDS_P2;PMS_P1;PMS_P2;Temp;Humidity;BMP_temperature;BMP_pressure;BME280_temperature;BME280_humidity;BME280_pressure;Samples;Min_cycle;Max_cycle;Signal;HPM_P1;HPM_P2
2023/06/11 00:02:08;;;;;;;9.13;7.30;;;;;;;;;;5015646;28;20532;-59
2023/06/11 00:04:35;;;;;;;7.80;7.17;;;;;;;;;;5015160;28;20452;-59
2023/06/11 00:07:02;;;;;;;7.53;7.13;;;;;;;;;;5014210;28;20524;-59
2023/06/11 00:09:30;;;;;;;7.67;7.17;;;;;;;;;;5014108;28;20435;-59
2023/06/11 00:11:58;;;;;;;8.33;7.73;;;;;;;;;;5015223;28;20434;-59
2023/06/11 00:14:24;;;;;;;7.47;7.03;;;;;;;;;;5015491;28;20425;-59
2023/06/11 00:16:51;;;;;;;7.70;7.30;;;;;;;;;;5015203;28;20435;-57
2023/06/11 00:19:19;;;;;;;7.40;7.00;;;;;;;;;;5015623;28;20394;-59
2023/06/11 00:21:45;;;;;;;8.23;7.57;;;;;;;;;;5015598;28;20509;-59
2023/06/11 00:24:12;;;;;;;7.20;6.90;;;;;;;;;;5015514;28;20419;-59
2023/06/11 00:26:40;;;;;;;7.30;6.90;;;;;;;;;;5013807;28;20995;-59
2023/06/11 00:29:07;;;;;;;7.43;7.07;;;;;;;;;;5015112;28;20914;-58
2023/06/11 00:31:33;;;;;;;7.63;7.23;;;;;;;;;;5014841;28;20422;-59
2023/06/11 00:34:02;;;;;;;7.70;7.10;;;;;;;;;;5014562;28;20426;-59
2023/06/11 00:36:29;;;;;;;7.23;6.93;;;;;;;;;;5014680;28;20433;-59
2023/06/11 00:38:55;;;;;;;7.90;7.20;;;;;;;;;;5014888;28;20442;-59
2023/06/11 00:41:24;;;;;;;7.37;6.97;;;;;;;;;;5014837;28;20513;-59
2023/06/11 00:43:52;;;;;;;7.00;6.70;;;;;;;;;;5014828;28;20442;-58
2023/06/11 00:46:21;;;;;;;7.00;6.70;;;;;;;;;;5014922;28;20469;-59
2023/06/11 00:48:48;;;;;;;6.73;6.43;;;;;;;;;;5014722;28;20892;-59
2023/06/11 00:51:18;;;;;;;7.00;6.50;;;;;;;;;;5013086;28;20420;-59
2023/06/11 00:53:47;;;;;;;7.53;6.87;;;;;;;;;;5014579;28;20432;-58
2023/06/11 00:56:17;;;;;;;7.23;6.90;;;;;;;;;;5013334;28;20828;-59
2023/06/11 00:58:45;;;;;;;7.47;6.87;;;;;;;;;;5014567;28;20859;-59
2023/06/11 01:01:11;;;;;;;8.37;7.60;;;;;;;;;;5014424;28;20800;-59
2023/06/11 01:03:41;;;;;;;7.17;6.80;;;;;;;;;;5014501;28;20408;-59
2023/06/11 01:06:12;;;;;;;7.03;6.70;;;;;;;;;;5014565;28;20462;-59
2023/06/11 01:08:39;;;;;;;7.70;7.20;;;;;;;;;;5014232;28;20457;-59
2023/06/11 01:11:08;;;;;;;182.57;107.03;;;;;;;;;;5014511;28;20420;-59
2023/06/11 01:13:37;;;;;;;329.17;205.10;;;;;;;;;;5014228;28;20433;-59
2023/06/11 01:16:15;;;;;;;26.53;18.30;;;;;;;;;;5014376;28;20578;-58
2023/06/11 01:19:03;;;;;;;9.40;8.40;;;;;;;;;;5014504;28;20405;-59
2023/06/11 01:21:33;;;;;;;7.37;6.90;;;;;;;;;;5014051;28;20448;-59
2023/06/11 01:24:28;;;;;;;7.60;7.10;;;;;;;;;;5014400;28;20930;-59
2023/06/11 01:27:04;;;;;;;7.60;7.10;;;;;;;;;;5001225;28;20473;-59
2023/06/11 01:29:31;;;;;;;6.80;6.43;;;;;;;;;;5012917;28;20913;-58
2023/06/11 01:31:58;;;;;;;7.10;6.70;;;;;;;;;;5014059;28;20433;-57
2023/06/11 01:34:25;;;;;;;6.70;6.10;;;;;;;;;;5013799;28;20425;-59
2023/06/11 01:36:51;;;;;;;7.00;6.30;;;;;;;;;;5013899;28;20500;-59
2023/06/11 01:39:19;;;;;;;6.43;6.00;;;;;;;;;;5013733;28;20908;-58
2023/06/11 01:41:45;;;;;;;10.67;6.87;;;;;;;;;;5013613;28;20440;-59
2023/06/11 01:44:12;;;;;;;6.80;6.40;;;;;;;;;;5013857;28;20413;-59
2023/06/11 01:46:38;;;;;;;7.10;6.77;;;;;;;;;;5012950;28;20465;-58
2023/06/11 01:49:04;;;;;;;6.40;6.10;;;;;;;;;;5013884;28;20463;-58
2023/06/11 01:51:32;;;;;;;6.13;5.77;;;;;;;;;;5012434;28;20991;-58
2023/06/11 01:54:00;;;;;;;7.57;6.97;;;;;;;;;;5013382;28;20448;-58
2023/06/11 01:56:26;;;;;;;7.00;6.50;;;;;;;;;;5012606;28;20520;-58
2023/06/11 01:58:52;;;;;;;7.03;6.73;;;;;;;;;;5011995;28;20432;-57
2023/06/11 02:01:20;;;;;;;7.23;6.63;;;;;;;;;;5013325;28;20412;-57
2023/06/11 02:03:46;;;;;;;7.10;6.70;;;;;;;;;;5013300;28;20409;-59
2023/06/11 02:06:12;;;;;;;7.13;6.83;;;;;;;;;;5013526;28;20469;-58
2023/06/11 02:08:40;;;;;;;7.63;7.13;;;;;;;;;;5013449;28;20495;-58
2023/06/11 02:11:06;;;;;;;7.73;7.23;;;;;;;;;;5012963;28;20999;-58
2023/06/11 02:13:32;;;;;;;7.50;7.10;;;;;;;;;;5013330;28;20548;-58
2023/06/11 02:16:01;;;;;;;7.77;7.17;;;;;;;;;;5012847;28;20438;-58
2023/06/11 02:18:27;;;;;;;7.63;7.20;;;;;;;;;;5013223;28;20490;-58
2023/06/11 02:20:55;;;;;;;7.93;7.43;;;;;;;;;;5013363;28;20495;-58
2023/06/11 02:23:21;;;;;;;7.17;6.87;;;;;;;;;;5013071;28;20413;-58
2023/06/11 02:25:49;;;;;;;7.20;6.70;;;;;;;;;;5012430;28;20462;-58
2023/06/11 02:28:18;;;;;;;7.00;6.70;;;;;;;;;;5013043;28;20921;-58
2023/06/11 02:30:44;;;;;;;8.03;7.33;;;;;;;;;;5013242;28;20562;-58
2023/06/11 02:33:10;;;;;;;7.40;6.80;;;;;;;;;;5013292;28;20798;-59
2023/06/11 02:35:36;;;;;;;7.33;6.60;;;;;;;;;;5013013;28;20803;-58
2023/06/11 02:38:02;;;;;;;7.60;6.90;;;;;;;;;;5012993;28;20498;-58
2023/06/11 02:40:28;;;;;;;7.47;7.07;;;;;;;;;;5013209;28;20903;-57
2023/06/11 02:42:54;;;;;;;7.00;6.50;;;;;;;;;;5012730;28;20471;-58
2023/06/11 02:45:20;;;;;;;9.73;7.27;;;;;;;;;;5012553;28;20428;-58
2023/06/11 02:47:48;;;;;;;7.77;7.30;;;;;;;;;;5012618;28;20959;-58
2023/06/11 02:50:14;;;;;;;7.73;7.20;;;;;;;;;;5013023;28;20406;-58
2023/06/11 02:52:40;;;;;;;7.83;7.37;;;;;;;;;;5012860;28;20433;-57
2023/06/11 02:55:07;;;;;;;7.73;7.37;;;;;;;;;;5012460;28;20422;-58
2023/06/11 02:57:33;;;;;;;7.20;6.80;;;;;;;;;;5012377;28;20422;-58
2023/06/11 02:59:59;;;;;;;8.47;7.77;;;;;;;;;;5012468;28;20427;-58
2023/06/11 03:02:25;;;;;;;7.80;7.40;;;;;;;;;;5012476;28;20899;-58
2023/06/11 03:04:51;;;;;;;9.50;8.70;;;;;;;;;;5012847;28;20416;-58
2023/06/11 03:07:16;;;;;;;7.10;6.60;;;;;;;;;;5012533;28;20905;-58
2023/06/11 03:09:42;;;;;;;7.43;6.73;;;;;;;;;;5012663;28;20416;-57
2023/06/11 03:12:09;;;;;;;8.87;7.40;;;;;;;;;;5012363;28;20412;-58
2023/06/11 03:14:34;;;;;;;8.33;7.70;;;;;;;;;;5012664;28;20429;-57
2023/06/11 03:17:00;;;;;;;8.10;7.50;;;;;;;;;;5012562;28;20835;-58
2023/06/11 03:19:26;;;;;;;7.40;7.00;;;;;;;;;;5012385;28;20410;-58
2023/06/11 03:21:55;;;;;;;8.07;7.40;;;;;;;;;;5012518;28;20775;-58
2023/06/11 03:24:21;;;;;;;8.57;7.70;;;;;;;;;;5011377;28;20426;-58
2023/06/11 03:26:49;;;;;;;7.37;6.87;;;;;;;;;;5012630;28;20459;-58
2023/06/11 03:29:15;;;;;;;8.17;7.40;;;;;;;;;;5011256;28;20833;-58
2023/06/11 03:31:44;;;;;;;7.90;7.30;;;;;;;;;;5012522;28;20415;-58
2023/06/11 03:34:12;;;;;;;8.57;7.57;;;;;;;;;;5012317;28;20464;-58
2023/06/11 03:36:38;;;;;;;8.13;7.53;;;;;;;;;;5012524;28;20501;-58
2023/06/11 03:39:04;;;;;;;8.93;8.33;;;;;;;;;;5012423;28;20541;-58
2023/06/11 03:41:30;;;;;;;8.40;7.70;;;;;;;;;;5012418;28;20465;-58
2023/06/11 03:43:56;;;;;;;8.10;7.60;;;;;;;;;;5012383;28;20865;-58
2023/06/11 03:46:25;;;;;;;8.53;8.03;;;;;;;;;;5012420;28;20519;-58
2023/06/11 03:48:51;;;;;;;8.20;7.60;;;;;;;;;;5012360;28;20440;-59
2023/06/11 03:51:17;;;;;;;8.90;8.10;;;;;;;;;;5012382;28;20410;-59
2023/06/11 03:53:43;;;;;;;8.77;8.13;;;;;;;;;;5012246;28;20842;-59
2023/06/11 03:56:09;;;;;;;7.90;7.30;;;;;;;;;;5012342;28;20403;-58
2023/06/11 03:58:35;;;;;;;8.00;7.40;;;;;;;;;;5011317;28;20443;-58
2023/06/11 04:01:01;;;;;;;8.27;7.30;;;;;;;;;;5012074;28;20429;-59
2023/06/11 04:03:27;;;;;;;8.27;7.80;;;;;;;;;;5012488;28;20442;-59
2023/06/11 04:05:53;;;;;;;9.27;8.47;;;;;;;;;;5012231;28;20477;-59
2023/06/11 04:08:21;;;;;;;8.33;7.83;;;;;;;;;;5012309;28;20465;-58
2023/06/11 04:10:50;;;;;;;8.47;7.87;;;;;;;;;;5014620;28;20417;-58
2023/06/11 04:13:18;;;;;;;10.20;9.13;;;;;;;;;;5015057;28;20465;-58
2023/06/11 04:15:44;;;;;;;9.00;8.40;;;;;;;;;;5015481;28;20464;-58
2023/06/11 04:18:11;;;;;;;8.00;7.30;;;;;;;;;;5015771;28;20417;-57
2023/06/11 04:20:39;;;;;;;8.03;7.50;;;;;;;;;;5015564;28;20447;-58
2023/06/11 04:23:06;;;;;;;8.30;7.80;;;;;;;;;;5015513;28;20449;-58
2023/06/11 04:25:36;;;;;;;12.13;8.10;;;;;;;;;;5015423;28;20411;-58
2023/06/11 04:28:02;;;;;;;8.80;8.20;;;;;;;;;;5015207;28;20420;-58
2023/06/11 04:30:28;;;;;;;13.33;7.77;;;;;;;;;;5015218;28;20410;-58
2023/06/11 04:32:54;;;;;;;8.43;7.37;;;;;;;;;;5015172;28;20415;-57
2023/06/11 04:35:23;;;;;;;8.40;7.60;;;;;;;;;;5015260;28;20398;-58
2023/06/11 04:37:49;;;;;;;9.20;8.10;;;;;;;;;;5015191;28;20440;-58
2023/06/11 04:40:18;;;;;;;8.73;8.00;;;;;;;;;;5015084;28;20488;-58
2023/06/11 04:42:46;;;;;;;8.70;8.00;;;;;;;;;;5015180;28;20461;-57
2023/06/11 04:45:12;;;;;;;9.00;8.30;;;;;;;;;;5014919;28;20467;-58
2023/06/11 04:47:38;;;;;;;8.53;7.83;;;;;;;;;;5013632;28;20466;-58
2023/06/11 04:50:06;;;;;;;8.50;7.87;;;;;;;;;;5014966;28;20553;-59
2023/06/11 04:52:35;;;;;;;9.00;8.30;;;;;;;;;;5015190;28;20872;-59
2023/06/11 04:55:01;;;;;;;8.97;8.27;;;;;;;;;;5014816;28;20430;-59
2023/06/11 04:57:27;;;;;;;9.53;8.70;;;;;;;;;;5014746;28;20413;-59
2023/06/11 04:59:53;;;;;;;11.83;8.90;;;;;;;;;;5013567;28;20480;-59
2023/06/11 05:02:21;;;;;;;9.73;8.93;;;;;;;;;;5014699;28;20436;-59
2023/06/11 05:04:49;;;;;;;9.43;8.50;;;;;;;;;;5014973;28;20439;-59
2023/06/11 05:07:17;;;;;;;10.10;9.27;;;;;;;;;;5014498;28;20499;-59
2023/06/11 05:09:44;;;;;;;9.70;8.90;;;;;;;;;;5014575;28;20520;-58
2023/06/11 05:12:12;;;;;;;10.07;9.17;;;;;;;;;;5014495;28;20447;-59
2023/06/11 05:14:38;;;;;;;9.30;8.50;;;;;;;;;;5014778;28;20437;-59
2023/06/11 05:17:04;;;;;;;9.50;8.67;;;;;;;;;;5014986;28;20413;-59
2023/06/11 05:19:31;;;;;;;9.90;9.20;;;;;;;;;;5014575;28;20450;-59
2023/06/11 05:21:57;;;;;;;9.27;8.67;;;;;;;;;;5013382;28;20412;-59
2023/06/11 05:24:28;;;;;;;8.40;7.70;;;;;;;;;;5014257;28;20444;-58
2023/06/11 05:26:55;;;;;;;9.90;9.00;;;;;;;;;;5014482;28;20847;-59
2023/06/11 05:29:21;;;;;;;8.30;7.80;;;;;;;;;;5014161;28;20440;-59
2023/06/11 05:31:47;;;;;;;8.40;7.90;;;;;;;;;;5014017;28;20413;-59
2023/06/11 05:34:13;;;;;;;9.17;8.50;;;;;;;;;;5014085;28;20436;-59
2023/06/11 05:36:40;;;;;;;8.70;8.13;;;;;;;;;;5012756;28;20447;-58
2023/06/11 05:39:06;;;;;;;8.07;7.57;;;;;;;;;;4996589;28;20887;-59
2023/06/11 05:41:34;;;;;;;8.80;7.90;;;;;;;;;;5014023;28;20504;-59
2023/06/11 05:44:00;;;;;;;8.17;7.57;;;;;;;;;;5014016;28;20443;-58
2023/06/11 05:46:28;;;;;;;8.07;7.67;;;;;;;;;;5013829;28;20548;-59
2023/06/11 05:48:55;;;;;;;8.40;7.70;;;;;;;;;;5012514;28;20471;-59
2023/06/11 05:51:21;;;;;;;8.30;7.80;;;;;;;;;;5013829;28;20443;-58
2023/06/11 05:53:47;;;;;;;8.23;7.70;;;;;;;;;;5013750;28;20478;-59
2023/06/11 05:56:13;;;;;;;7.87;7.47;;;;;;;;;;5012426;28;20885;-58
2023/06/11 05:58:39;;;;;;;7.80;7.30;;;;;;;;;;5013599;28;20486;-59
2023/06/11 06:01:06;;;;;;;7.30;6.80;;;;;;;;;;5013710;28;20501;-59
2023/06/11 06:03:32;;;;;;;8.07;7.57;;;;;;;;;;5013490;28;20902;-59
2023/06/11 06:05:59;;;;;;;7.20;6.63;;;;;;;;;;5013520;28;20475;-59
2023/06/11 06:08:28;;;;;;;7.13;6.80;;;;;;;;;;5013500;28;20507;-59
2023/06/11 06:10:54;;;;;;;8.50;7.70;;;;;;;;;;5013507;28;20950;-59
2023/06/11 06:13:24;;;;;;;6.90;6.50;;;;;;;;;;5013362;28;20438;-59
2023/06/11 06:15:50;;;;;;;8.50;7.77;;;;;;;;;;5013400;28;20411;-59
2023/06/11 06:18:19;;;;;;;7.10;6.43;;;;;;;;;;5013462;28;20427;-59
2023/06/11 06:20:46;;;;;;;7.57;7.17;;;;;;;;;;5013318;28;20971;-59
2023/06/11 06:23:12;;;;;;;7.73;7.13;;;;;;;;;;5013233;28;20420;-58
2023/06/11 06:25:38;;;;;;;7.37;6.97;;;;;;;;;;5013145;28;20423;-59
2023/06/11 06:28:08;;;;;;;8.10;7.50;;;;;;;;;;5013235;28;20434;-59
2023/06/11 06:30:34;;;;;;;8.03;7.63;;;;;;;;;;5011543;28;20527;-59
2023/06/11 06:33:00;;;;;;;8.10;7.53;;;;;;;;;;5012712;28;20414;-59
2023/06/11 06:35:26;;;;;;;7.13;6.73;;;;;;;;;;5013006;28;20439;-59
2023/06/11 06:37:52;;;;;;;7.80;7.20;;;;;;;;;;5013180;28;20431;-59
2023/06/11 06:40:18;;;;;;;9.00;8.13;;;;;;;;;;5013151;28;20594;-59
2023/06/11 06:42:44;;;;;;;10.53;9.53;;;;;;;;;;5012900;28;20483;-59
2023/06/11 06:45:10;;;;;;;7.77;7.43;;;;;;;;;;5013084;28;20449;-59
2023/06/11 06:47:36;;;;;;;8.20;7.60;;;;;;;;;;5012884;28;20502;-59
2023/06/11 06:50:03;;;;;;;8.70;7.90;;;;;;;;;;5012947;28;20468;-59
2023/06/11 06:52:29;;;;;;;8.50;7.90;;;;;;;;;;5013015;28;20431;-59
2023/06/11 06:54:55;;;;;;;8.30;7.73;;;;;;;;;;5012977;28;20539;-59
2023/06/11 06:57:21;;;;;;;8.23;7.50;;;;;;;;;;5012917;28;20924;-59
2023/06/11 06:59:47;;;;;;;7.10;6.80;;;;;;;;;;5012635;28;20444;-59
2023/06/11 07:02:15;;;;;;;7.77;7.17;;;;;;;;;;5011369;28;20420;-59
2023/06/11 07:04:42;;;;;;;7.80;7.40;;;;;;;;;;5011332;28;20923;-59
2023/06/11 07:07:08;;;;;;;7.50;7.20;;;;;;;;;;5012571;28;20506;-59
2023/06/11 07:09:34;;;;;;;7.63;7.23;;;;;;;;;;5012412;28;20547;-59
2023/06/11 07:12:00;;;;;;;7.43;7.13;;;;;;;;;;5012431;28;20417;-58
2023/06/11 07:14:28;;;;;;;14.30;13.10;;;;;;;;;;5012644;28;20828;-59
2023/06/11 07:16:54;;;;;;;7.33;6.93;;;;;;;;;;5012245;28;20472;-59
2023/06/11 07:19:20;;;;;;;7.67;7.37;;;;;;;;;;5012637;28;20408;-60
2023/06/11 07:21:46;;;;;;;7.87;7.27;;;;;;;;;;5012434;28;20396;-59
2023/06/11 07:24:12;;;;;;;7.33;6.83;;;;;;;;;;5012505;28;20409;-59
2023/06/11 07:26:38;;;;;;;7.00;6.70;;;;;;;;;;5012256;28;20522;-59
2023/06/11 07:29:04;;;;;;;7.43;6.93;;;;;;;;;;5011077;28;20435;-59
2023/06/11 07:31:30;;;;;;;7.53;7.03;;;;;;;;;;5012270;28;20414;-59
2023/06/11 07:33:56;;;;;;;8.73;8.23;;;;;;;;;;5012077;28;20407;-59
2023/06/11 07:36:24;;;;;;;8.00;7.33;;;;;;;;;;5012153;28;20419;-59
2023/06/11 07:38:50;;;;;;;7.50;6.90;;;;;;;;;;5012186;28;20511;-59
2023/06/11 07:41:19;;;;;;;8.00;7.43;;;;;;;;;;5012170;28;20525;-59
2023/06/11 07:43:45;;;;;;;7.03;6.63;;;;;;;;;;5011308;28;20435;-59
2023/06/11 07:46:11;;;;;;;7.17;6.73;;;;;;;;;;5015910;28;20836;-58
2023/06/11 07:48:41;;;;;;;7.63;7.13;;;;;;;;;;5015868;28;20411;-59
2023/06/11 07:51:07;;;;;;;7.77;7.37;;;;;;;;;;5015939;28;20464;-61
2023/06/11 07:53:33;;;;;;;7.13;6.63;;;;;;;;;;5014782;28;20518;-61
2023/06/11 07:55:59;;;;;;;6.53;6.10;;;;;;;;;;5015948;28;20448;-61
2023/06/11 07:58:25;;;;;;;7.40;7.07;;;;;;;;;;5015924;28;20505;-61
2023/06/11 08:00:52;;;;;;;7.50;7.10;;;;;;;;;;5015868;28;20460;-61
2023/06/11 08:03:19;;;;;;;6.37;6.07;;;;;;;;;;5015917;28;20417;-61
2023/06/11 08:05:45;;;;;;;6.93;6.63;;;;;;;;;;5014293;28;20510;-61
2023/06/11 08:08:11;;;;;;;7.13;6.83;;;;;;;;;;5015743;28;20436;-61
2023/06/11 08:10:39;;;;;;;7.63;6.00;;;;;;;;;;5015735;28;20472;-61
2023/06/11 08:13:05;;;;;;;6.47;6.27;;;;;;;;;;5014308;28;20457;-61
2023/06/11 08:15:32;;;;;;;6.70;6.30;;;;;;;;;;5015521;28;20446;-61
2023/06/11 08:18:03;;;;;;;6.63;6.40;;;;;;;;;;5015136;28;20782;-61
2023/06/11 08:20:29;;;;;;;5.73;5.63;;;;;;;;;;5015582;28;20529;-61
2023/06/11 08:22:58;;;;;;;6.70;6.30;;;;;;;;;;5015675;28;20487;-61
2023/06/11 08:25:26;;;;;;;5.93;5.83;;;;;;;;;;5015296;28;20450;-61
2023/06/11 08:27:52;;;;;;;6.33;6.13;;;;;;;;;;5015338;28;20468;-61
2023/06/11 08:30:18;;;;;;;8.70;5.63;;;;;;;;;;5015301;28;20810;-61
2023/06/11 08:32:46;;;;;;;6.10;5.53;;;;;;;;;;5015340;28;20461;-61
2023/06/11 08:35:12;;;;;;;5.80;5.50;;;;;;;;;;5015267;28;20445;-61
2023/06/11 08:37:38;;;;;;;6.87;6.60;;;;;;;;;;5015123;28;20422;-61
2023/06/11 08:40:06;;;;;;;6.70;6.30;;;;;;;;;;5014906;28;20448;-61
2023/06/11 08:42:32;;;;;;;6.40;6.10;;;;;;;;;;5014862;28;20435;-61
2023/06/11 08:44:58;;;;;;;6.40;5.50;;;;;;;;;;5014802;28;20424;-61
2023/06/11 08:47:26;;;;;;;5.83;5.63;;;;;;;;;;5013435;28;20472;-61
2023/06/11 08:49:54;;;;;;;5.90;5.70;;;;;;;;;;5014703;28;20415;-61
2023/06/11 08:52:25;;;;;;;36.63;31.57;;;;;;;;;;5014931;28;20447;-61
2023/06/11 08:54:51;;;;;;;6.93;6.30;;;;;;;;;;5014256;28;20428;-61
2023/06/11 08:57:17;;;;;;;5.87;5.67;;;;;;;;;;5014695;28;20425;-61
2023/06/11 08:59:43;;;;;;;6.60;6.30;;;;;;;;;;5014631;28;20426;-61
2023/06/11 09:02:09;;;;;;;4.73;4.60;;;;;;;;;;5014641;28;20415;-61
2023/06/11 09:04:35;;;;;;;6.30;5.90;;;;;;;;;;5014688;28;20762;-61
2023/06/11 09:07:03;;;;;;;5.90;5.70;;;;;;;;;;5014471;28;20476;-61
2023/06/11 09:09:29;;;;;;;5.30;5.00;;;;;;;;;;5014690;28;20449;-61
2023/06/11 09:11:55;;;;;;;5.33;5.13;;;;;;;;;;5014378;28;20438;-61
2023/06/11 09:14:21;;;;;;;5.40;5.13;;;;;;;;;;5014351;28;20428;-61
2023/06/11 09:16:48;;;;;;;5.80;5.60;;;;;;;;;;5014196;28;20449;-61
2023/06/11 09:19:15;;;;;;;4.87;4.77;;;;;;;;;;5014549;28;20431;-61
2023/06/11 09:21:51;;;;;;;5.73;5.60;;;;;;;;;;5012925;28;20417;-61
2023/06/11 09:24:19;;;;;;;5.80;5.50;;;;;;;;;;5014182;28;20432;-61
2023/06/11 09:26:49;;;;;;;5.90;5.60;;;;;;;;;;5012829;28;20483;-61
2023/06/11 09:29:16;;;;;;;6.10;5.80;;;;;;;;;;5014542;28;20435;-61
2023/06/11 09:31:42;;;;;;;5.90;5.70;;;;;;;;;;5014286;28;20443;-61
2023/06/11 09:34:12;;;;;;;5.90;5.50;;;;;;;;;;5013818;28;20438;-61
2023/06/11 09:36:38;;;;;;;7.70;6.00;;;;;;;;;;5014366;28;20456;-61
2023/06/11 09:39:04;;;;;;;6.30;5.90;;;;;;;;;;5013746;28;20420;-61
2023/06/11 09:41:30;;;;;;;5.97;5.77;;;;;;;;;;5013747;28;20459;-61
2023/06/11 09:43:56;;;;;;;5.60;5.30;;;;;;;;;;5013790;28;20420;-61
2023/06/11 09:46:23;;;;;;;5.60;5.30;;;;;;;;;;5013685;28;20461;-61
2023/06/11 09:48:49;;;;;;;17.73;11.20;;;;;;;;;;5013858;28;20463;-61
2023/06/11 09:51:21;;;;;;;5.70;5.27;;;;;;;;;;5013774;28;20432;-61
2023/06/11 09:53:50;;;;;;;6.23;5.83;;;;;;;;;;5013630;28;20409;-61
2023/06/11 09:56:17;;;;;;;5.53;5.23;;;;;;;;;;5013531;28;20417;-61
2023/06/11 09:58:48;;;;;;;5.63;5.30;;;;;;;;;;5013689;28;20431;-61
2023/06/11 10:01:15;;;;;;;5.20;5.00;;;;;;;;;;5013587;28;20531;-61
2023/06/11 10:03:41;;;;;;;4.70;4.60;;;;;;;;;;5013543;28;20413;-61
2023/06/11 10:06:11;;;;;;;5.07;4.97;;;;;;;;;;5013005;28;20555;-61
2023/06/11 10:08:38;;;;;;;5.43;5.33;;;;;;;;;;5013141;28;20427;-61
2023/06/11 10:11:04;;;;;;;5.47;5.27;;;;;;;;;;5013362;28;20409;-61
2023/06/11 10:13:31;;;;;;;5.70;5.03;;;;;;;;;;5012890;28;20647;-61
2023/06/11 10:16:03;;;;;;;5.30;5.00;;;;;;;;;;5013311;28;20409;-61
2023/06/11 10:18:30;;;;;;;4.97;4.73;;;;;;;;;;5011852;28;20425;-61
2023/06/11 10:21:06;;;;;;;11.10;10.30;;;;;;;;;;5013321;28;20795;-61
2023/06/11 10:23:38;;;;;;;4.73;4.63;;;;;;;;;;5013278;28;20446;-61
2023/06/11 10:26:04;;;;;;;6.10;5.80;;;;;;;;;;5013077;28;20841;-61
2023/06/11 10:28:37;;;;;;;5.73;5.43;;;;;;;;;;5013455;28;20998;-61
2023/06/11 10:31:04;;;;;;;5.50;5.23;;;;;;;;;;5013361;28;20471;-61
2023/06/11 10:33:56;;;;;;;5.30;5.20;;;;;;;;;;5013044;28;20405;-61
2023/06/11 10:36:28;;;;;;;4.90;4.80;;;;;;;;;;5010227;28;20424;-61
2023/06/11 10:39:04;;;;;;;5.57;5.37;;;;;;;;;;5012798;28;20417;-61
2023/06/11 10:41:30;;;;;;;4.63;4.53;;;;;;;;;;5012990;28;20851;-61
2023/06/11 10:43:59;;;;;;;5.20;4.73;;;;;;;;;;5013045;28;20422;-61
2023/06/11 10:46:28;;;;;;;5.13;4.67;;;;;;;;;;5012824;28;20468;-61
2023/06/11 10:48:56;;;;;;;4.60;4.37;;;;;;;;;;5012868;28;21010;-61
2023/06/11 10:51:22;;;;;;;4.80;4.70;;;;;;;;;;5012349;28;20523;-61
2023/06/11 10:53:58;;;;;;;5.77;5.57;;;;;;;;;;5012847;28;20854;-61
2023/06/11 10:56:25;;;;;;;5.30;5.10;;;;;;;;;;5012604;28;20457;-61
2023/06/11 10:58:52;;;;;;;5.03;4.63;;;;;;;;;;5011584;28;20452;-61
2023/06/11 11:01:24;;;;;;;4.93;4.53;;;;;;;;;;5012738;28;20468;-61
2023/06/11 11:03:50;;;;;;;4.73;4.57;;;;;;;;;;5012758;28;20431;-61
2023/06/11 11:06:26;;;;;;;3.70;3.60;;;;;;;;;;5012885;28;20476;-61
2023/06/11 11:08:55;;;;;;;4.60;4.40;;;;;;;;;;5012643;28;20892;-61
2023/06/11 11:11:22;;;;;;;4.53;4.33;;;;;;;;;;5012622;28;20837;-61
2023/06/11 11:13:48;;;;;;;4.03;3.93;;;;;;;;;;5012575;28;20432;-61
2023/06/11 11:16:14;;;;;;;15.53;14.20;;;;;;;;;;5012651;28;20881;-61
2023/06/11 11:18:40;;;;;;;4.00;3.80;;;;;;;;;;5014496;28;20436;-61
2023/06/11 11:21:06;;;;;;;3.97;3.87;;;;;;;;;;5016540;28;20417;-61
2023/06/11 11:23:35;;;;;;;4.30;4.20;;;;;;;;;;5016639;28;20407;-61
2023/06/11 11:26:01;;;;;;;4.47;4.30;;;;;;;;;;5016754;28;20428;-61
2023/06/11 11:28:31;;;;;;;4.87;4.73;;;;;;;;;;5016467;28;20922;-61
2023/06/11 11:31:00;;;;;;;5.03;4.77;;;;;;;;;;5016420;28;20409;-61
2023/06/11 11:33:26;;;;;;;5.00;4.90;;;;;;;;;;5016274;28;20413;-61
2023/06/11 11:35:53;;;;;;;4.33;4.13;;;;;;;;;;5016375;28;20424;-61
2023/06/11 11:38:22;;;;;;;4.53;4.23;;;;;;;;;;5016315;28;20816;-61
2023/06/11 11:40:57;;;;;;;3.93;3.83;;;;;;;;;;5016440;28;20449;-61
2023/06/11 11:43:26;;;;;;;5.07;4.87;;;;;;;;;;5014756;28;20439;-61
2023/06/11 11:45:53;;;;;;;4.20;4.10;;;;;;;;;;5016357;28;20436;-61
2023/06/11 11:48:19;;;;;;;7.70;7.20;;;;;;;;;;5016106;28;20462;-61
2023/06/11 11:50:50;;;;;;;4.73;4.53;;;;;;;;;;5015784;28;20417;-61
2023/06/11 11:53:18;;;;;;;4.13;3.93;;;;;;;;;;5015869;28;20443;-61
2023/06/11 11:55:44;;;;;;;4.30;4.10;;;;;;;;;;5016013;28;20392;-61
2023/06/11 11:58:13;;;;;;;4.50;4.30;;;;;;;;;;5015898;28;20498;-61
2023/06/11 12:00:50;;;;;;;4.63;4.43;;;;;;;;;;5015792;28;20924;-61
2023/06/11 12:03:23;;;;;;;3.67;3.67;;;;;;;;;;5015772;28;20471;-61
2023/06/11 12:06:01;;;;;;;4.50;4.30;;;;;;;;;;5015846;28;20417;-61
2023/06/11 12:08:32;;;;;;;9.23;8.60;;;;;;;;;;5015447;28;20417;-61
2023/06/11 12:10:59;;;;;;;3.20;3.20;;;;;;;;;;5014553;28;20511;-61
2023/06/11 12:13:27;;;;;;;3.10;3.00;;;;;;;;;;5015580;28;20923;-61
2023/06/11 12:15:54;;;;;;;5.03;4.73;;;;;;;;;;5014381;28;20417;-61
2023/06/11 12:18:20;;;;;;;3.80;3.70;;;;;;;;;;5015503;28;20930;-61
2023/06/11 12:20:46;;;;;;;2.80;2.80;;;;;;;;;;5015443;28;20413;-61
2023/06/11 12:23:12;;;;;;;3.37;3.00;;;;;;;;;;5015469;28;20409;-61
2023/06/11 12:25:39;;;;;;;2.53;2.43;;;;;;;;;;5015448;28;20412;-62
2023/06/11 12:28:05;;;;;;;2.90;2.80;;;;;;;;;;5015419;28;20464;-62
2023/06/11 12:30:32;;;;;;;2.77;2.77;;;;;;;;;;5014720;28;20420;-62
2023/06/11 12:32:58;;;;;;;2.80;2.60;;;;;;;;;;5015371;28;20445;-62
2023/06/11 12:35:27;;;;;;;4.37;2.97;;;;;;;;;;5015360;28;20425;-62
2023/06/11 12:37:55;;;;;;;2.47;2.47;;;;;;;;;;5015060;28;20417;-61
2023/06/11 12:40:21;;;;;;;3.13;3.03;;;;;;;;;;5015247;28;20409;-61
2023/06/11 12:42:49;;;;;;;2.20;2.20;;;;;;;;;;5015092;28;20516;-61
2023/06/11 12:45:16;;;;;;;9.37;8.53;;;;;;;;;;5015115;28;20571;-61
2023/06/11 12:47:42;;;;;;;3.00;2.80;;;;;;;;;;5014803;28;20476;-62
2023/06/11 12:50:08;;;;;;;6.77;6.30;;;;;;;;;;5015042;28;20463;-62
2023/06/11 12:52:35;;;;;;;11.70;9.50;;;;;;;;;;5015165;28;20476;-61
2023/06/11 12:55:01;;;;;;;3.67;3.47;;;;;;;;;;5015060;28;20409;-61
2023/06/11 12:57:27;;;;;;;2.83;2.83;;;;;;;;;;5015223;28;21007;-62
2023/06/11 12:59:53;;;;;;;2.30;2.30;;;;;;;;;;5013490;28;20429;-61
2023/06/11 13:02:19;;;;;;;2.43;2.43;;;;;;;;;;5014739;28;20782;-62
2023/06/11 13:04:45;;;;;;;2.60;2.50;;;;;;;;;;5014607;28;20423;-62
2023/06/11 13:07:11;;;;;;;2.77;2.77;;;;;;;;;;5014532;28;20483;-62
2023/06/11 13:09:37;;;;;;;2.40;2.40;;;;;;;;;;5014548;28;20262;-62
2023/06/11 13:12:03;;;;;;;2.90;2.67;;;;;;;;;;5014477;28;20653;-62
2023/06/11 13:14:29;;;;;;;2.70;2.60;;;;;;;;;;5014571;28;20417;-62
2023/06/11 13:16:58;;;;;;;2.70;2.70;;;;;;;;;;5014396;28;20436;-62
2023/06/11 13:19:24;;;;;;;2.70;2.70;;;;;;;;;;5014312;28;20888;-62
2023/06/11 13:21:50;;;;;;;2.53;2.53;;;;;;;;;;5013247;28;20748;-62
2023/06/11 13:24:16;;;;;;;2.77;2.77;;;;;;;;;;5014255;28;20189;-62
2023/06/11 13:26:42;;;;;;;2.57;2.57;;;;;;;;;;5014195;28;20595;-62
2023/06/11 13:29:08;;;;;;;4.53;2.57;;;;;;;;;;5014252;28;20420;-62
2023/06/11 13:31:34;;;;;;;2.63;2.53;;;;;;;;;;5014159;28;20444;-62
2023/06/11 13:34:01;;;;;;;3.57;2.43;;;;;;;;;;5014074;28;20938;-61
2023/06/11 13:36:29;;;;;;;2.83;2.63;;;;;;;;;;5014070;28;20425;-61
2023/06/11 13:38:55;;;;;;;2.43;2.27;;;;;;;;;;5012634;28;20441;-61
2023/06/11 13:41:21;;;;;;;2.80;2.80;;;;;;;;;;5012974;28;20436;-61
2023/06/11 13:43:49;;;;;;;2.90;2.80;;;;;;;;;;5013720;28;20479;-61
2023/06/11 13:46:16;;;;;;;2.80;2.70;;;;;;;;;;5013814;28;20487;-61
2023/06/11 13:48:45;;;;;;;2.57;2.47;;;;;;;;;;5013888;28;20822;-61
2023/06/11 13:51:11;;;;;;;2.83;2.83;;;;;;;;;;5013917;28;20433;-61
2023/06/11 13:53:40;;;;;;;8.00;2.60;;;;;;;;;;5013816;28;20924;-62
2023/06/11 13:56:06;;;;;;;3.90;2.80;;;;;;;;;;5013434;28;20445;-61
2023/06/11 13:58:32;;;;;;;3.70;3.50;;;;;;;;;;5013478;28;20425;-61
2023/06/11 14:00:58;;;;;;;2.87;2.77;;;;;;;;;;5012209;28;20571;-61
2023/06/11 14:03:30;;;;;;;2.90;2.87;;;;;;;;;;5069374;28;20543;-61
2023/06/11 14:05:57;;;;;;;3.00;3.00;;;;;;;;;;5069631;28;20520;-61
2023/06/11 14:08:23;;;;;;;4.20;4.00;;;;;;;;;;5069496;28;20422;-61
2023/06/11 14:10:52;;;;;;;3.07;2.97;;;;;;;;;;5069551;28;20403;-61
2023/06/11 14:13:18;;;;;;;3.20;3.10;;;;;;;;;;5069587;28;20560;-61
2023/06/11 14:15:44;;;;;;;3.37;3.27;;;;;;;;;;5069777;28;20411;-61
2023/06/11 14:18:15;;;;;;;2.43;2.43;;;;;;;;;;5069251;28;20445;-61
2023/06/11 14:20:41;;;;;;;2.97;2.77;;;;;;;;;;5069419;28;20406;-61
2023/06/11 14:23:07;;;;;;;2.67;2.67;;;;;;;;;;5068042;28;20565;-61
2023/06/11 14:25:33;;;;;;;2.93;2.80;;;;;;;;;;5069239;28;20423;-61
2023/06/11 14:27:59;;;;;;;6.47;2.80;;;;;;;;;;5069262;28;20540;-61
2023/06/11 14:30:25;;;;;;;3.17;2.97;;;;;;;;;;5068902;28;20437;-61
2023/06/11 14:32:54;;;;;;;2.80;2.70;;;;;;;;;;5069334;28;20446;-61
2023/06/11 14:35:20;;;;;;;3.10;2.87;;;;;;;;;;5069226;28;20430;-61
2023/06/11 14:37:46;;;;;;;2.60;2.60;;;;;;;;;;5069011;28;20410;-61
2023/06/11 14:40:12;;;;;;;3.93;3.60;;;;;;;;;;5069146;28;20417;-61
2023/06/11 14:42:38;;;;;;;3.07;2.70;;;;;;;;;;5068949;28;21141;-61
2023/06/11 14:45:06;;;;;;;3.07;2.87;;;;;;;;;;5068875;28;20409;-61